sensor_id;sensor_type;location;lat;lon;timestamp;P1;durP1;ratioP1;P2;durP2;ratioP2
819;SDS011;392;48.838;2.322;2023-03-01T00:01:13;10.30;;;9.40;;
819;SDS011;392;48.838;2.322;2023-03-01T00:03:44;10.50;;;9.57;;
819;SDS011;392;48.838;2.322;2023-03-01T00:06:12;10.85;;;9.85;;
819;SDS011;392;48.838;2.322;2023-03-01T00:08:40;10.35;;;9.45;;
819;SDS011;392;48.838;2.322;2023-03-01T00:11:10;10.52;;;9.52;;
819;SDS011;392;48.838;2.322;2023-03-01T00:13:41;10.65;;;9.65;;
819;SDS011;392;48.838;2.322;2023-03-01T00:16:10;11.07;;;9.98;;
819;SDS011;392;48.838;2.322;2023-03-01T00:18:40;11.10;;;9.90;;
819;SDS011;392;48.838;2.322;2023-03-01T00:21:09;11.35;;;10.27;;
819;SDS011;392;48.838;2.322;2023-03-01T00:23:37;11.35;;;10.35;;
819;SDS011;392;48.838;2.322;2023-03-01T00:26:05;12.10;;;10.70;;
819;SDS011;392;48.838;2.322;2023-03-01T00:28:36;11.23;;;10.10;;
819;SDS011;392;48.838;2.322;2023-03-01T00:31:04;10.68;;;9.57;;
819;SDS011;392;48.838;2.322;2023-03-01T00:33:32;10.57;;;9.57;;
819;SDS011;392;48.838;2.322;2023-03-01T00:36:00;10.27;;;9.25;;
819;SDS011;392;48.838;2.322;2023-03-01T00:38:29;11.07;;;10.07;;
819;SDS011;392;48.838;2.322;2023-03-01T00:41:02;10.75;;;9.70;;
819;SDS011;392;48.838;2.322;2023-03-01T00:43:30;11.15;;;9.95;;
819;SDS011;392;48.838;2.322;2023-03-01T00:46:02;10.85;;;9.77;;
819;SDS011;392;48.838;2.322;2023-03-01T00:48:31;11.23;;;10.13;;
819;SDS011;392;48.838;2.322;2023-03-01T00:51:03;12.70;;;10.32;;
819;SDS011;392;48.838;2.322;2023-03-01T00:53:34;11.45;;;10.07;;
819;SDS011;392;48.838;2.322;2023-03-01T00:56:02;10.57;;;9.48;;
819;SDS011;392;48.838;2.322;2023-03-01T00:58:30;11.27;;;10.07;;
819;SDS011;392;48.838;2.322;2023-03-01T01:00:58;12.13;;;10.48;;
819;SDS011;392;48.838;2.322;2023-03-01T01:03:26;11.50;;;10.30;;
819;SDS011;392;48.838;2.322;2023-03-01T01:05:53;11.70;;;10.60;;
819;SDS011;392;48.838;2.322;2023-03-01T01:08:21;10.98;;;9.98;;
819;SDS011;392;48.838;2.322;2023-03-01T01:10:49;10.90;;;9.90;;
819;SDS011;392;48.838;2.322;2023-03-01T01:13:17;10.93;;;9.82;;
819;SDS011;392;48.838;2.322;2023-03-01T01:15:45;10.90;;;9.70;;
819;SDS011;392;48.838;2.322;2023-03-01T01:18:12;11.05;;;9.88;;
819;SDS011;392;48.838;2.322;2023-03-01T01:20:39;11.18;;;10.10;;
819;SDS011;392;48.838;2.322;2023-03-01T01:23:06;11.05;;;10.00;;
819;SDS011;392;48.838;2.322;2023-03-01T01:25:34;11.50;;;10.40;;
819;SDS011;392;48.838;2.322;2023-03-01T01:28:04;12.60;;;10.60;;
819;SDS011;392;48.838;2.322;2023-03-01T01:30:31;11.60;;;10.60;;
819;SDS011;392;48.838;2.322;2023-03-01T01:32:58;10.98;;;9.88;;
819;SDS011;392;48.838;2.322;2023-03-01T01:35:25;11.10;;;10.10;;
819;SDS011;392;48.838;2.322;2023-03-01T01:37:54;10.32;;;9.32;;
819;SDS011;392;48.838;2.322;2023-03-01T01:40:22;10.85;;;9.85;;
819;SDS011;392;48.838;2.322;2023-03-01T01:42:49;11.98;;;10.77;;
819;SDS011;392;48.838;2.322;2023-03-01T01:48:03;10.80;;;9.70;;
819;SDS011;392;48.838;2.322;2023-03-01T01:50:38;11.20;;;10.10;;
819;SDS011;392;48.838;2.322;2023-03-01T01:53:08;11.70;;;10.60;;
819;SDS011;392;48.838;2.322;2023-03-01T01:55:39;11.45;;;10.35;;
819;SDS011;392;48.838;2.322;2023-03-01T01:58:10;10.80;;;9.70;;
819;SDS011;392;48.838;2.322;2023-03-01T02:00:42;11.35;;;10.10;;
819;SDS011;392;48.838;2.322;2023-03-01T02:03:10;11.02;;;10.00;;
819;SDS011;392;48.838;2.322;2023-03-01T02:05:44;10.88;;;9.88;;
819;SDS011;392;48.838;2.322;2023-03-01T02:08:18;11.05;;;9.95;;
819;SDS011;392;48.838;2.322;2023-03-01T02:10:47;12.02;;;10.77;;
819;SDS011;392;48.838;2.322;2023-03-01T02:13:17;11.20;;;10.00;;
819;SDS011;392;48.838;2.322;2023-03-01T02:15:45;11.43;;;10.25;;
819;SDS011;392;48.838;2.322;2023-03-01T02:18:14;11.45;;;10.30;;
819;SDS011;392;48.838;2.322;2023-03-01T02:20:48;10.85;;;9.60;;
819;SDS011;392;48.838;2.322;2023-03-01T02:23:30;12.15;;;10.95;;
819;SDS011;392;48.838;2.322;2023-03-01T02:26:00;11.50;;;10.30;;
819;SDS011;392;48.838;2.322;2023-03-01T02:28:34;10.77;;;9.70;;
819;SDS011;392;48.838;2.322;2023-03-01T02:31:03;12.00;;;10.80;;
819;SDS011;392;48.838;2.322;2023-03-01T02:33:51;11.93;;;10.68;;
819;SDS011;392;48.838;2.322;2023-03-01T02:36:20;12.93;;;11.63;;
819;SDS011;392;48.838;2.322;2023-03-01T02:38:52;12.32;;;10.95;;
819;SDS011;392;48.838;2.322;2023-03-01T02:41:24;11.55;;;10.38;;
819;SDS011;392;48.838;2.322;2023-03-01T02:43:56;12.15;;;10.93;;
819;SDS011;392;48.838;2.322;2023-03-01T02:46:24;11.82;;;10.68;;
819;SDS011;392;48.838;2.322;2023-03-01T02:48:53;12.80;;;11.05;;
819;SDS011;392;48.838;2.322;2023-03-01T02:51:25;11.85;;;10.65;;
819;SDS011;392;48.838;2.322;2023-03-01T02:54:13;12.80;;;11.40;;
819;SDS011;392;48.838;2.322;2023-03-01T02:56:48;12.32;;;11.13;;
819;SDS011;392;48.838;2.322;2023-03-01T02:59:21;11.90;;;10.70;;
819;SDS011;392;48.838;2.322;2023-03-01T03:01:53;13.07;;;11.63;;
819;SDS011;392;48.838;2.322;2023-03-01T03:04:20;12.85;;;11.13;;
819;SDS011;392;48.838;2.322;2023-03-01T03:06:49;12.70;;;11.38;;
819;SDS011;392;48.838;2.322;2023-03-01T03:09:17;12.00;;;10.80;;
819;SDS011;392;48.838;2.322;2023-03-01T03:11:45;12.68;;;11.48;;
819;SDS011;392;48.838;2.322;2023-03-01T03:14:14;12.75;;;11.45;;
819;SDS011;392;48.838;2.322;2023-03-01T03:16:47;12.68;;;11.35;;
819;SDS011;392;48.838;2.322;2023-03-01T03:19:16;12.43;;;11.02;;
819;SDS011;392;48.838;2.322;2023-03-01T03:21:45;12.82;;;11.50;;
819;SDS011;392;48.838;2.322;2023-03-01T03:24:13;12.98;;;11.65;;
819;SDS011;392;48.838;2.322;2023-03-01T03:26:40;13.25;;;11.82;;
819;SDS011;392;48.838;2.322;2023-03-01T03:29:07;13.75;;;11.40;;
819;SDS011;392;48.838;2.322;2023-03-01T03:31:35;12.80;;;11.50;;
819;SDS011;392;48.838;2.322;2023-03-01T03:34:03;12.77;;;11.55;;
819;SDS011;392;48.838;2.322;2023-03-01T03:36:31;13.77;;;12.48;;
819;SDS011;392;48.838;2.322;2023-03-01T03:38:58;12.77;;;11.52;;
819;SDS011;392;48.838;2.322;2023-03-01T03:41:25;12.88;;;11.00;;
819;SDS011;392;48.838;2.322;2023-03-01T03:43:52;12.27;;;11.07;;
819;SDS011;392;48.838;2.322;2023-03-01T03:46:20;13.73;;;12.32;;
819;SDS011;392;48.838;2.322;2023-03-01T03:48:47;13.27;;;11.68;;
819;SDS011;392;48.838;2.322;2023-03-01T03:51:17;14.82;;;12.00;;
819;SDS011;392;48.838;2.322;2023-03-01T03:53:45;13.10;;;11.85;;
819;SDS011;392;48.838;2.322;2023-03-01T03:56:12;13.25;;;11.48;;
819;SDS011;392;48.838;2.322;2023-03-01T03:58:39;11.57;;;10.52;;
819;SDS011;392;48.838;2.322;2023-03-01T04:01:07;11.73;;;10.52;;
819;SDS011;392;48.838;2.322;2023-03-01T04:03:34;12.52;;;11.32;;
819;SDS011;392;48.838;2.322;2023-03-01T04:06:02;12.95;;;11.23;;
819;SDS011;392;48.838;2.322;2023-03-01T04:08:32;12.35;;;11.05;;
819;SDS011;392;48.838;2.322;2023-03-01T04:11:00;13.15;;;11.73;;
819;SDS011;392;48.838;2.322;2023-03-01T04:13:51;11.73;;;10.55;;
819;SDS011;392;48.838;2.322;2023-03-01T04:16:20;13.63;;;12.13;;
819;SDS011;392;48.838;2.322;2023-03-01T04:18:47;12.70;;;11.40;;
819;SDS011;392;48.838;2.322;2023-03-01T04:21:15;13.80;;;11.90;;
819;SDS011;392;48.838;2.322;2023-03-01T04:23:44;13.93;;;12.52;;
819;SDS011;392;48.838;2.322;2023-03-01T04:26:11;13.00;;;11.70;;
819;SDS011;392;48.838;2.322;2023-03-01T04:28:39;13.15;;;11.85;;
819;SDS011;392;48.838;2.322;2023-03-01T04:31:11;12.40;;;11.13;;
819;SDS011;392;48.838;2.322;2023-03-01T04:33:41;13.50;;;11.48;;
819;SDS011;392;48.838;2.322;2023-03-01T04:36:10;12.60;;;11.40;;
819;SDS011;392;48.838;2.322;2023-03-01T04:38:39;12.98;;;11.50;;
819;SDS011;392;48.838;2.322;2023-03-01T04:41:09;13.23;;;11.90;;
819;SDS011;392;48.838;2.322;2023-03-01T04:43:37;13.82;;;12.43;;
819;SDS011;392;48.838;2.322;2023-03-01T04:46:05;12.95;;;11.57;;
819;SDS011;392;48.838;2.322;2023-03-01T04:48:35;12.10;;;10.90;;
819;SDS011;392;48.838;2.322;2023-03-01T04:51:03;13.48;;;12.18;;
819;SDS011;392;48.838;2.322;2023-03-01T04:53:32;13.38;;;12.00;;
819;SDS011;392;48.838;2.322;2023-03-01T04:56:01;13.23;;;11.93;;
819;SDS011;392;48.838;2.322;2023-03-01T04:58:30;14.27;;;12.00;;
819;SDS011;392;48.838;2.322;2023-03-01T05:00:58;14.23;;;12.43;;
819;SDS011;392;48.838;2.322;2023-03-01T05:03:25;13.80;;;12.40;;
819;SDS011;392;48.838;2.322;2023-03-01T05:05:53;14.63;;;11.77;;
819;SDS011;392;48.838;2.322;2023-03-01T05:08:26;14.38;;;12.25;;
819;SDS011;392;48.838;2.322;2023-03-01T05:10:53;13.77;;;12.20;;
819;SDS011;392;48.838;2.322;2023-03-01T05:13:21;14.70;;;12.02;;
819;SDS011;392;48.838;2.322;2023-03-01T05:15:53;15.00;;;12.77;;
819;SDS011;392;48.838;2.322;2023-03-01T05:18:22;12.90;;;11.55;;
819;SDS011;392;48.838;2.322;2023-03-01T05:20:51;13.32;;;11.93;;
819;SDS011;392;48.838;2.322;2023-03-01T05:23:23;13.73;;;12.23;;
819;SDS011;392;48.838;2.322;2023-03-01T05:25:50;13.05;;;11.73;;
819;SDS011;392;48.838;2.322;2023-03-01T05:28:18;14.25;;;12.35;;
819;SDS011;392;48.838;2.322;2023-03-01T05:30:46;14.80;;;13.30;;
819;SDS011;392;48.838;2.322;2023-03-01T05:33:18;15.82;;;13.10;;
819;SDS011;392;48.838;2.322;2023-03-01T05:35:47;13.75;;;12.38;;
819;SDS011;392;48.838;2.322;2023-03-01T05:38:17;14.98;;;13.32;;
819;SDS011;392;48.838;2.322;2023-03-01T05:40:45;14.60;;;13.10;;
819;SDS011;392;48.838;2.322;2023-03-01T05:43:15;14.75;;;13.25;;
819;SDS011;392;48.838;2.322;2023-03-01T05:45:43;15.10;;;13.30;;
819;SDS011;392;48.838;2.322;2023-03-01T05:48:11;14.50;;;13.05;;
819;SDS011;392;48.838;2.322;2023-03-01T05:50:42;15.13;;;13.63;;
819;SDS011;392;48.838;2.322;2023-03-01T05:53:11;15.38;;;13.82;;
819;SDS011;392;48.838;2.322;2023-03-01T05:55:41;15.45;;;13.85;;
819;SDS011;392;48.838;2.322;2023-03-01T05:58:13;16.30;;;14.30;;
819;SDS011;392;48.838;2.322;2023-03-01T06:00:42;14.60;;;12.95;;
819;SDS011;392;48.838;2.322;2023-03-01T06:03:11;14.63;;;13.13;;
819;SDS011;392;48.838;2.322;2023-03-01T06:05:42;16.95;;;13.73;;
819;SDS011;392;48.838;2.322;2023-03-01T06:08:10;15.27;;;13.52;;
819;SDS011;392;48.838;2.322;2023-03-01T06:10:39;15.75;;;13.57;;
819;SDS011;392;48.838;2.322;2023-03-01T06:13:07;15.85;;;14.10;;
819;SDS011;392;48.838;2.322;2023-03-01T06:15:34;15.65;;;13.98;;
819;SDS011;392;48.838;2.322;2023-03-01T06:18:01;19.42;;;15.57;;
819;SDS011;392;48.838;2.322;2023-03-01T06:20:29;17.63;;;15.70;;
819;SDS011;392;48.838;2.322;2023-03-01T06:22:58;17.50;;;15.70;;
819;SDS011;392;48.838;2.322;2023-03-01T06:25:25;16.45;;;14.75;;
819;SDS011;392;48.838;2.322;2023-03-01T06:27:53;16.95;;;15.15;;
819;SDS011;392;48.838;2.322;2023-03-01T06:30:21;16.85;;;15.00;;
819;SDS011;392;48.838;2.322;2023-03-01T06:32:50;17.15;;;15.35;;
819;SDS011;392;48.838;2.322;2023-03-01T06:35:18;18.13;;;14.80;;
819;SDS011;392;48.838;2.322;2023-03-01T06:37:46;17.17;;;15.50;;
819;SDS011;392;48.838;2.322;2023-03-01T06:40:15;17.10;;;15.40;;
819;SDS011;392;48.838;2.322;2023-03-01T06:42:44;17.60;;;15.60;;
819;SDS011;392;48.838;2.322;2023-03-01T06:45:15;19.02;;;17.02;;
819;SDS011;392;48.838;2.322;2023-03-01T06:47:44;18.10;;;16.30;;
819;SDS011;392;48.838;2.322;2023-03-01T06:50:12;17.73;;;15.88;;
819;SDS011;392;48.838;2.322;2023-03-01T06:52:40;18.05;;;16.10;;
819;SDS011;392;48.838;2.322;2023-03-01T06:55:09;18.27;;;16.33;;
819;SDS011;392;48.838;2.322;2023-03-01T06:57:38;18.52;;;16.45;;
819;SDS011;392;48.838;2.322;2023-03-01T07:00:06;19.38;;;16.83;;
819;SDS011;392;48.838;2.322;2023-03-01T07:02:34;19.95;;;17.25;;
819;SDS011;392;48.838;2.322;2023-03-01T07:05:02;18.55;;;16.60;;
819;SDS011;392;48.838;2.322;2023-03-01T07:07:30;19.00;;;17.00;;
819;SDS011;392;48.838;2.322;2023-03-01T07:09:57;23.25;;;17.95;;
819;SDS011;392;48.838;2.322;2023-03-01T07:12:27;18.58;;;16.67;;
819;SDS011;392;48.838;2.322;2023-03-01T07:14:56;21.13;;;17.02;;
819;SDS011;392;48.838;2.322;2023-03-01T07:17:23;19.20;;;17.20;;
819;SDS011;392;48.838;2.322;2023-03-01T07:19:50;19.27;;;17.10;;
819;SDS011;392;48.838;2.322;2023-03-01T07:22:18;21.95;;;18.23;;
819;SDS011;392;48.838;2.322;2023-03-01T07:24:45;19.92;;;17.83;;
819;SDS011;392;48.838;2.322;2023-03-01T07:27:12;20.17;;;18.02;;
819;SDS011;392;48.838;2.322;2023-03-01T07:29:39;27.52;;;19.83;;
819;SDS011;392;48.838;2.322;2023-03-01T07:32:08;20.15;;;18.00;;
819;SDS011;392;48.838;2.322;2023-03-01T07:34:36;20.58;;;17.23;;
819;SDS011;392;48.838;2.322;2023-03-01T07:37:04;21.05;;;18.90;;
819;SDS011;392;48.838;2.322;2023-03-01T07:39:31;21.20;;;17.67;;
819;SDS011;392;48.838;2.322;2023-03-01T07:41:59;23.70;;;19.88;;
819;SDS011;392;48.838;2.322;2023-03-01T07:44:26;24.88;;;18.92;;
819;SDS011;392;48.838;2.322;2023-03-01T07:46:54;20.90;;;18.70;;
819;SDS011;392;48.838;2.322;2023-03-01T07:49:24;22.25;;;18.65;;
819;SDS011;392;48.838;2.322;2023-03-01T07:51:53;21.08;;;18.30;;
819;SDS011;392;48.838;2.322;2023-03-01T07:54:20;25.80;;;19.05;;
819;SDS011;392;48.838;2.322;2023-03-01T07:56:48;20.98;;;18.75;;
819;SDS011;392;48.838;2.322;2023-03-01T07:59:38;21.50;;;19.20;;
819;SDS011;392;48.838;2.322;2023-03-01T08:02:05;19.25;;;17.20;;
819;SDS011;392;48.838;2.322;2023-03-01T08:04:36;21.15;;;18.95;;
819;SDS011;392;48.838;2.322;2023-03-01T08:07:04;21.45;;;19.13;;
819;SDS011;392;48.838;2.322;2023-03-01T08:09:34;21.35;;;18.95;;
819;SDS011;392;48.838;2.322;2023-03-01T08:12:02;23.50;;;19.88;;
819;SDS011;392;48.838;2.322;2023-03-01T08:14:30;21.88;;;19.67;;
819;SDS011;392;48.838;2.322;2023-03-01T08:16:58;24.13;;;19.10;;
819;SDS011;392;48.838;2.322;2023-03-01T08:19:25;22.45;;;19.77;;
819;SDS011;392;48.838;2.322;2023-03-01T08:21:55;21.55;;;19.15;;
819;SDS011;392;48.838;2.322;2023-03-01T08:24:23;21.02;;;18.60;;
819;SDS011;392;48.838;2.322;2023-03-01T08:26:51;22.20;;;18.92;;
819;SDS011;392;48.838;2.322;2023-03-01T08:29:18;21.27;;;19.10;;
819;SDS011;392;48.838;2.322;2023-03-01T08:31:45;20.63;;;18.42;;
819;SDS011;392;48.838;2.322;2023-03-01T08:34:15;21.48;;;18.33;;
819;SDS011;392;48.838;2.322;2023-03-01T08:36:44;20.48;;;18.48;;
819;SDS011;392;48.838;2.322;2023-03-01T08:39:14;21.02;;;18.88;;
819;SDS011;392;48.838;2.322;2023-03-01T08:41:44;21.98;;;18.58;;
819;SDS011;392;48.838;2.322;2023-03-01T08:44:12;21.55;;;18.50;;
819;SDS011;392;48.838;2.322;2023-03-01T08:46:42;22.30;;;18.65;;
819;SDS011;392;48.838;2.322;2023-03-01T08:49:11;20.98;;;18.77;;
819;SDS011;392;48.838;2.322;2023-03-01T08:51:40;21.73;;;19.35;;
819;SDS011;392;48.838;2.322;2023-03-01T08:54:09;21.42;;;19.13;;
819;SDS011;392;48.838;2.322;2023-03-01T08:56:41;21.45;;;18.70;;
819;SDS011;392;48.838;2.322;2023-03-01T08:59:09;21.67;;;18.25;;
819;SDS011;392;48.838;2.322;2023-03-01T09:01:37;21.67;;;17.98;;
819;SDS011;392;48.838;2.322;2023-03-01T09:04:05;21.95;;;19.05;;
819;SDS011;392;48.838;2.322;2023-03-01T09:06:33;22.58;;;18.65;;
819;SDS011;392;48.838;2.322;2023-03-01T09:09:01;20.45;;;17.35;;
819;SDS011;392;48.838;2.322;2023-03-01T09:11:30;20.20;;;17.92;;
819;SDS011;392;48.838;2.322;2023-03-01T09:13:59;20.80;;;18.63;;
819;SDS011;392;48.838;2.322;2023-03-01T09:16:27;21.70;;;19.05;;
819;SDS011;392;48.838;2.322;2023-03-01T09:18:55;23.40;;;19.58;;
819;SDS011;392;48.838;2.322;2023-03-01T09:21:23;19.77;;;17.67;;
819;SDS011;392;48.838;2.322;2023-03-01T09:23:50;22.98;;;19.05;;
819;SDS011;392;48.838;2.322;2023-03-01T09:26:18;21.83;;;18.83;;
819;SDS011;392;48.838;2.322;2023-03-01T09:28:48;20.25;;;18.10;;
819;SDS011;392;48.838;2.322;2023-03-01T09:31:19;20.48;;;17.73;;
819;SDS011;392;48.838;2.322;2023-03-01T09:33:49;21.52;;;18.70;;
819;SDS011;392;48.838;2.322;2023-03-01T09:36:19;20.75;;;18.48;;
819;SDS011;392;48.838;2.322;2023-03-01T09:38:48;22.35;;;18.63;;
819;SDS011;392;48.838;2.322;2023-03-01T09:41:22;20.48;;;18.25;;
819;SDS011;392;48.838;2.322;2023-03-01T09:44:05;22.88;;;18.95;;
819;SDS011;392;48.838;2.322;2023-03-01T09:46:46;21.67;;;19.27;;
819;SDS011;392;48.838;2.322;2023-03-01T09:49:15;19.98;;;17.83;;
819;SDS011;392;48.838;2.322;2023-03-01T09:51:48;21.50;;;19.20;;
819;SDS011;392;48.838;2.322;2023-03-01T09:54:26;21.00;;;18.63;;
819;SDS011;392;48.838;2.322;2023-03-01T09:56:59;21.63;;;19.48;;
819;SDS011;392;48.838;2.322;2023-03-01T09:59:37;21.67;;;18.55;;
819;SDS011;392;48.838;2.322;2023-03-01T10:02:34;21.63;;;18.58;;
819;SDS011;392;48.838;2.322;2023-03-01T10:05:12;20.85;;;17.70;;
819;SDS011;392;48.838;2.322;2023-03-01T10:07:54;21.50;;;19.23;;
819;SDS011;392;48.838;2.322;2023-03-01T10:10:46;20.13;;;17.98;;
819;SDS011;392;48.838;2.322;2023-03-01T10:13:15;20.80;;;18.67;;
819;SDS011;392;48.838;2.322;2023-03-01T10:15:47;20.35;;;18.25;;
819;SDS011;392;48.838;2.322;2023-03-01T10:18:21;21.17;;;18.98;;
819;SDS011;392;48.838;2.322;2023-03-01T10:20:52;20.95;;;18.63;;
819;SDS011;392;48.838;2.322;2023-03-01T10:23:23;19.50;;;17.60;;
819;SDS011;392;48.838;2.322;2023-03-01T10:25:54;20.50;;;18.20;;
819;SDS011;392;48.838;2.322;2023-03-01T10:28:39;20.80;;;18.55;;
819;SDS011;392;48.838;2.322;2023-03-01T10:31:18;21.67;;;19.55;;
819;SDS011;392;48.838;2.322;2023-03-01T10:33:54;21.40;;;18.98;;
819;SDS011;392;48.838;2.322;2023-03-01T10:36:24;22.73;;;19.58;;
819;SDS011;392;48.838;2.322;2023-03-01T10:38:52;20.37;;;17.90;;
819;SDS011;392;48.838;2.322;2023-03-01T10:41:22;21.80;;;19.20;;
819;SDS011;392;48.838;2.322;2023-03-01T10:43:52;22.25;;;19.35;;
819;SDS011;392;48.838;2.322;2023-03-01T10:46:23;20.75;;;18.55;;
819;SDS011;392;48.838;2.322;2023-03-01T10:49:12;22.95;;;18.42;;
819;SDS011;392;48.838;2.322;2023-03-01T10:51:42;20.67;;;18.15;;
819;SDS011;392;48.838;2.322;2023-03-01T10:54:17;19.02;;;17.08;;
819;SDS011;392;48.838;2.322;2023-03-01T10:56:48;22.80;;;18.37;;
819;SDS011;392;48.838;2.322;2023-03-01T10:59:27;21.40;;;17.77;;
819;SDS011;392;48.838;2.322;2023-03-01T11:02:03;20.55;;;17.17;;
819;SDS011;392;48.838;2.322;2023-03-01T11:04:57;20.90;;;18.70;;
819;SDS011;392;48.838;2.322;2023-03-01T11:07:26;21.57;;;18.40;;
819;SDS011;392;48.838;2.322;2023-03-01T11:09:55;20.70;;;18.50;;
819;SDS011;392;48.838;2.322;2023-03-01T11:12:23;19.73;;;17.60;;
819;SDS011;392;48.838;2.322;2023-03-01T11:14:54;20.27;;;18.17;;
819;SDS011;392;48.838;2.322;2023-03-01T11:17:23;21.30;;;18.65;;
819;SDS011;392;48.838;2.322;2023-03-01T11:20:02;20.53;;;18.37;;
819;SDS011;392;48.838;2.322;2023-03-01T11:22:36;20.80;;;18.60;;
819;SDS011;392;48.838;2.322;2023-03-01T11:25:04;23.83;;;19.50;;
819;SDS011;392;48.838;2.322;2023-03-01T11:27:38;22.13;;;19.83;;
819;SDS011;392;48.838;2.322;2023-03-01T11:30:13;20.70;;;18.50;;
819;SDS011;392;48.838;2.322;2023-03-01T11:32:49;22.00;;;18.97;;
819;SDS011;392;48.838;2.322;2023-03-01T11:35:29;21.00;;;18.73;;
819;SDS011;392;48.838;2.322;2023-03-01T11:38:03;20.47;;;18.30;;
819;SDS011;392;48.838;2.322;2023-03-01T11:40:44;22.70;;;17.50;;
819;SDS011;392;48.838;2.322;2023-03-01T11:43:18;21.33;;;18.70;;
819;SDS011;392;48.838;2.322;2023-03-01T11:46:01;21.20;;;18.97;;
819;SDS011;392;48.838;2.322;2023-03-01T11:49:18;20.20;;;17.77;;
819;SDS011;392;48.838;2.322;2023-03-01T11:52:15;20.87;;;18.50;;
819;SDS011;392;48.838;2.322;2023-03-01T11:54:55;18.70;;;16.80;;
819;SDS011;392;48.838;2.322;2023-03-01T11:57:43;18.87;;;16.83;;
819;SDS011;392;48.838;2.322;2023-03-01T12:00:31;18.83;;;16.83;;
819;SDS011;392;48.838;2.322;2023-03-01T12:03:31;20.20;;;15.90;;
819;SDS011;392;48.838;2.322;2023-03-01T12:06:26;19.93;;;17.90;;
819;SDS011;392;48.838;2.322;2023-03-01T12:09:19;18.90;;;15.10;;
819;SDS011;392;48.838;2.322;2023-03-01T12:12:26;19.30;;;16.37;;
819;SDS011;392;48.838;2.322;2023-03-01T12:15:07;18.20;;;16.13;;
819;SDS011;392;48.838;2.322;2023-03-01T12:17:57;16.93;;;15.13;;
819;SDS011;392;48.838;2.322;2023-03-01T12:20:56;20.13;;;17.47;;
819;SDS011;392;48.838;2.322;2023-03-01T12:26:39;18.73;;;16.73;;
819;SDS011;392;48.838;2.322;2023-03-01T12:29:24;19.43;;;17.10;;
819;SDS011;392;48.838;2.322;2023-03-01T12:32:10;20.10;;;18.10;;
819;SDS011;392;48.838;2.322;2023-03-01T12:34:56;21.90;;;19.60;;
819;SDS011;392;48.838;2.322;2023-03-01T12:37:42;19.83;;;17.70;;
819;SDS011;392;48.838;2.322;2023-03-01T12:40:38;21.20;;;19.10;;
819;SDS011;392;48.838;2.322;2023-03-01T12:43:36;20.57;;;18.57;;
819;SDS011;392;48.838;2.322;2023-03-01T12:46:39;21.03;;;19.03;;
819;SDS011;392;48.838;2.322;2023-03-01T12:49:33;19.83;;;17.87;;
819;SDS011;392;48.838;2.322;2023-03-01T12:52:09;21.17;;;18.03;;
819;SDS011;392;48.838;2.322;2023-03-01T12:54:41;21.00;;;18.90;;
819;SDS011;392;48.838;2.322;2023-03-01T12:57:14;20.90;;;18.60;;
819;SDS011;392;48.838;2.322;2023-03-01T12:59:51;21.47;;;18.87;;
819;SDS011;392;48.838;2.322;2023-03-01T13:02:35;20.93;;;18.73;;
819;SDS011;392;48.838;2.322;2023-03-01T13:05:21;20.10;;;18.10;;
819;SDS011;392;48.838;2.322;2023-03-01T13:08:01;21.13;;;19.07;;
819;SDS011;392;48.838;2.322;2023-03-01T13:10:40;21.17;;;18.40;;
819;SDS011;392;48.838;2.322;2023-03-01T13:13:14;20.73;;;18.60;;
819;SDS011;392;48.838;2.322;2023-03-01T13:15:48;21.07;;;18.97;;
819;SDS011;392;48.838;2.322;2023-03-01T13:18:28;21.27;;;18.97;;
819;SDS011;392;48.838;2.322;2023-03-01T13:20:57;20.20;;;18.20;;
819;SDS011;392;48.838;2.322;2023-03-01T13:23:31;20.63;;;18.57;;
819;SDS011;392;48.838;2.322;2023-03-01T13:26:04;19.80;;;17.80;;
819;SDS011;392;48.838;2.322;2023-03-01T13:28:39;19.70;;;17.70;;
819;SDS011;392;48.838;2.322;2023-03-01T13:37:27;19.87;;;17.30;;
819;SDS011;392;48.838;2.322;2023-03-01T13:39:57;19.40;;;17.30;;
819;SDS011;392;48.838;2.322;2023-03-01T13:42:49;19.43;;;17.00;;
819;SDS011;392;48.838;2.322;2023-03-01T13:45:22;20.60;;;17.10;;
819;SDS011;392;48.838;2.322;2023-03-01T13:48:02;19.50;;;17.13;;
819;SDS011;392;48.838;2.322;2023-03-01T13:50:37;19.40;;;15.93;;
819;SDS011;392;48.838;2.322;2023-03-01T13:53:14;20.10;;;17.27;;
819;SDS011;392;48.838;2.322;2023-03-01T13:55:45;20.50;;;17.23;;
819;SDS011;392;48.838;2.322;2023-03-01T13:58:16;20.07;;;17.87;;
819;SDS011;392;48.838;2.322;2023-03-01T14:00:57;21.33;;;19.03;;
819;SDS011;392;48.838;2.322;2023-03-01T14:03:29;18.77;;;16.80;;
819;SDS011;392;48.838;2.322;2023-03-01T14:06:06;20.87;;;17.27;;
819;SDS011;392;48.838;2.322;2023-03-01T14:08:35;19.83;;;17.73;;
819;SDS011;392;48.838;2.322;2023-03-01T14:14:26;18.40;;;16.37;;
819;SDS011;392;48.838;2.322;2023-03-01T14:17:23;19.67;;;17.37;;
819;SDS011;392;48.838;2.322;2023-03-01T14:20:28;18.00;;;16.07;;
819;SDS011;392;48.838;2.322;2023-03-01T14:23:01;18.30;;;15.93;;
819;SDS011;392;48.838;2.322;2023-03-01T14:25:37;18.47;;;16.57;;
819;SDS011;392;48.838;2.322;2023-03-01T14:28:12;20.27;;;16.57;;
819;SDS011;392;48.838;2.322;2023-03-01T14:30:44;20.50;;;16.43;;
819;SDS011;392;48.838;2.322;2023-03-01T14:33:18;19.70;;;16.60;;
819;SDS011;392;48.838;2.322;2023-03-01T14:35:54;21.73;;;17.20;;
819;SDS011;392;48.838;2.322;2023-03-01T14:38:29;19.90;;;16.03;;
819;SDS011;392;48.838;2.322;2023-03-01T14:41:00;18.07;;;16.27;;
819;SDS011;392;48.838;2.322;2023-03-01T14:43:32;19.67;;;17.57;;
819;SDS011;392;48.838;2.322;2023-03-01T14:46:02;21.80;;;17.60;;
819;SDS011;392;48.838;2.322;2023-03-01T14:48:30;19.60;;;17.50;;
819;SDS011;392;48.838;2.322;2023-03-01T14:51:00;20.10;;;17.70;;
819;SDS011;392;48.838;2.322;2023-03-01T14:53:28;20.80;;;17.83;;
819;SDS011;392;48.838;2.322;2023-03-01T14:56:01;22.10;;;17.23;;
819;SDS011;392;48.838;2.322;2023-03-01T14:58:31;23.00;;;17.47;;
819;SDS011;392;48.838;2.322;2023-03-01T15:01:00;22.30;;;16.80;;
819;SDS011;392;48.838;2.322;2023-03-01T15:03:32;20.43;;;18.30;;
819;SDS011;392;48.838;2.322;2023-03-01T15:06:05;24.03;;;19.10;;
819;SDS011;392;48.838;2.322;2023-03-01T15:08:34;23.07;;;19.07;;
819;SDS011;392;48.838;2.322;2023-03-01T15:11:04;22.57;;;18.73;;
819;SDS011;392;48.838;2.322;2023-03-01T15:13:46;21.20;;;18.90;;
819;SDS011;392;48.838;2.322;2023-03-01T15:16:14;22.60;;;19.60;;
819;SDS011;392;48.838;2.322;2023-03-01T15:18:44;23.17;;;18.00;;
819;SDS011;392;48.838;2.322;2023-03-01T15:21:18;20.50;;;17.43;;
819;SDS011;392;48.838;2.322;2023-03-01T15:23:50;21.20;;;18.20;;
819;SDS011;392;48.838;2.322;2023-03-01T15:26:26;21.87;;;18.13;;
819;SDS011;392;48.838;2.322;2023-03-01T15:28:57;24.10;;;18.13;;
819;SDS011;392;48.838;2.322;2023-03-01T15:31:27;22.13;;;17.63;;
819;SDS011;392;48.838;2.322;2023-03-01T15:34:10;24.13;;;18.13;;
819;SDS011;392;48.838;2.322;2023-03-01T15:36:50;21.47;;;17.40;;
819;SDS011;392;48.838;2.322;2023-03-01T15:39:35;24.83;;;18.53;;
819;SDS011;392;48.838;2.322;2023-03-01T15:42:06;22.20;;;17.80;;
819;SDS011;392;48.838;2.322;2023-03-01T15:44:39;25.97;;;17.77;;
819;SDS011;392;48.838;2.322;2023-03-01T15:47:23;23.43;;;17.53;;
819;SDS011;392;48.838;2.322;2023-03-01T15:49:54;20.70;;;16.57;;
819;SDS011;392;48.838;2.322;2023-03-01T15:52:24;17.83;;;15.70;;
819;SDS011;392;48.838;2.322;2023-03-01T15:54:55;18.03;;;15.50;;
819;SDS011;392;48.838;2.322;2023-03-01T15:57:25;20.27;;;17.90;;
819;SDS011;392;48.838;2.322;2023-03-01T15:59:52;19.70;;;16.47;;
819;SDS011;392;48.838;2.322;2023-03-01T16:02:20;23.20;;;16.60;;
819;SDS011;392;48.838;2.322;2023-03-01T16:04:48;20.20;;;16.40;;